Terminal Aerodrome Forecast
Issued by NWS

Home | Current Version | Previous Version | Text Only | Print | Product List | Glossary On
Versions: 1 2 3 4 5 6 7 8 9 10 11 12 13 14 15 16 17 18
000
FTUS41 KAKQ 230802 AAA
TAFPHF
TAF AMD
KPHF 230802Z 2308/2406 VRB03KT 3SM MIFG SKC
     FM231200 VRB03KT P6SM SKC
     FM231500 04007KT P6SM SKC
     FM240100 00000KT P6SM SKC=

USA.gov is the U.S. government's official web portal to all federal, state and local government web resources and services.